Terminal Aerodrome Forecast
Issued by NWS

Home | Current Version | Previous Version | Graphics & Text | Print | Product List | Glossary On
Versions: 1 2 3 4 5 6 7 8 9 10 11 12 13 14 15 16 17 18 19 20 21 22
951
FTUS43 KMPX 221733
TAFRWF
TAF
KRWF 221733Z 2218/2318 18018G26KT P6SM FEW050 SCT110
     FM230100 16014G22KT P6SM SCT050 BKN090
     FM230800 16016G22KT P6SM VCTS BKN050CB
     FM231200 18016G22KT 6SM SHRA VCTS SCT025 BKN040CB=

USA.gov is the U.S. government's official web portal to all federal, state and local government web resources and services.